Time;durP1;ratioP1;P1;durP2;ratioP2;P2;SDS_P1;SDS_P2;PMS_P1;PMS_P2;Temp;Humidity;BMP_temperature;BMP_pressure;BME280_temperature;BME280_humidity;BME280_pressure;Samples;Min_cycle;Max_cycle;Signal;HPM_P1;HPM_P2
2023/10/02 00:01:17;;;;;;;12.43;5.20;;;21.20;69.90;;;;;;5033224;28;20038;-54
2023/10/02 00:03:44;;;;;;;10.75;5.68;;;21.20;69.30;;;;;;5032063;28;20085;-59
2023/10/02 00:06:11;;;;;;;12.10;5.18;;;21.20;69.30;;;;;;5035682;28;20038;-59
2023/10/02 00:08:49;;;;;;;9.63;5.38;;;21.20;69.20;;;;;;5030918;28;20105;-57
2023/10/02 00:11:36;;;;;;;13.57;5.35;;;21.20;69.10;;;;;;5049372;28;20386;-58
2023/10/02 00:14:18;;;;;;;9.88;4.93;;;21.20;69.50;;;;;;5041945;28;20031;-57
2023/10/02 00:16:58;;;;;;;12.68;5.32;;;21.20;68.90;;;;;;5027377;28;20111;-58
2023/10/02 00:19:40;;;;;;;14.25;5.00;;;21.20;69.10;;;;;;5055291;28;20028;-58
2023/10/02 00:22:36;;;;;;;15.77;5.35;;;21.20;69.20;;;;;;5042304;28;20088;-56
2023/10/02 00:25:27;;;;;;;10.27;5.03;;;21.20;69.20;;;;;;5038506;28;20522;-58
2023/10/02 00:27:54;;;;;;;11.02;5.03;;;21.20;69.00;;;;;;5048202;28;20020;-57
2023/10/02 00:30:35;;;;;;;12.95;5.22;;;21.20;69.00;;;;;;5009364;28;20032;-58
2023/10/02 00:33:02;;;;;;;11.77;5.10;;;21.20;69.10;;;;;;5092723;28;20055;-56
2023/10/02 00:35:30;;;;;;;13.20;5.10;;;21.20;69.10;;;;;;5019986;28;20400;-58
2023/10/02 00:37:57;;;;;;;12.70;5.32;;;21.20;69.00;;;;;;5030992;28;20058;-57
2023/10/02 00:40:26;;;;;;;11.95;5.18;;;21.20;69.00;;;;;;5041483;28;20110;-56
2023/10/02 00:42:58;;;;;;;10.70;4.47;;;21.20;69.00;;;;;;5006082;28;20393;-55
2023/10/02 00:45:30;;;;;;;11.02;5.20;;;21.20;68.80;;;;;;5049763;28;20024;-58
2023/10/02 00:48:25;;;;;;;11.93;4.97;;;21.20;68.80;;;;;;5028765;28;20024;-53
2023/10/02 00:50:50;;;;;;;12.85;4.80;;;21.20;68.80;;;;;;5031444;28;20439;-56
2023/10/02 00:53:24;;;;;;;9.05;5.07;;;21.20;68.70;;;;;;5033228;28;20024;-55
2023/10/02 00:55:51;;;;;;;10.48;4.78;;;21.20;68.50;;;;;;5029851;28;20041;-56
2023/10/02 00:58:19;;;;;;;11.23;5.00;;;21.20;68.80;;;;;;4955121;28;20109;-58
2023/10/02 01:00:50;;;;;;;12.00;4.70;;;21.20;68.70;;;;;;5027595;28;20465;-53
2023/10/02 01:03:16;;;;;;;11.02;4.95;;;21.20;68.60;;;;;;5025451;28;20032;-57
2023/10/02 01:05:51;;;;;;;11.02;4.60;;;21.20;68.50;;;;;;5028625;28;20550;-58
2023/10/02 01:08:24;;;;;;;9.23;4.55;;;21.20;69.20;;;;;;5026282;28;20028;-56
2023/10/02 01:10:58;;;;;;;10.88;5.05;;;21.20;68.50;;;;;;4990545;28;20026;-55
2023/10/02 01:13:29;;;;;;;15.35;4.95;;;21.20;68.50;;;;;;5024196;28;20029;-57
2023/10/02 01:16:04;;;;;;;12.43;4.70;;;21.20;68.50;;;;;;5062525;28;20430;-57
2023/10/02 01:18:30;;;;;;;11.85;5.20;;;21.20;68.50;;;;;;5031643;28;20110;-58
2023/10/02 01:21:00;;;;;;;11.05;5.38;;;21.20;68.40;;;;;;5006278;28;20024;-58
2023/10/02 01:23:33;;;;;;;11.23;4.97;;;21.20;68.60;;;;;;5039585;28;20113;-55
2023/10/02 01:26:02;;;;;;;9.57;4.50;;;21.20;68.40;;;;;;5038988;28;20030;-56
2023/10/02 01:28:29;;;;;;;9.48;4.90;;;21.20;68.40;;;;;;5031173;28;20034;-58
2023/10/02 01:30:55;;;;;;;12.05;5.65;;;21.20;68.40;;;;;;5033955;28;20103;-57
2023/10/02 01:33:22;;;;;;;13.10;5.50;;;21.20;68.40;;;;;;5070938;28;20107;-58
2023/10/02 01:35:59;;;;;;;11.13;5.22;;;21.20;68.30;;;;;;5030365;28;20075;-56
2023/10/02 01:38:32;;;;;;;13.02;5.68;;;21.20;68.30;;;;;;5024850;28;20598;-57
2023/10/02 01:41:06;;;;;;;9.00;4.80;;;21.20;68.30;;;;;;4988094;28;20030;-56
2023/10/02 01:43:42;;;;;;;10.80;5.05;;;21.20;68.40;;;;;;5031086;28;20056;-56
2023/10/02 01:46:10;;;;;;;11.18;5.30;;;21.20;68.40;;;;;;5042471;28;20101;-56
2023/10/02 01:48:40;;;;;;;10.27;4.93;;;21.20;68.40;;;;;;5037429;28;20033;-56
2023/10/02 01:51:15;;;;;;;11.52;5.25;;;21.20;68.30;;;;;;5030159;28;20042;-56
2023/10/02 01:53:48;;;;;;;16.08;5.03;;;21.20;68.30;;;;;;5042689;28;20083;-57
2023/10/02 01:56:16;;;;;;;10.80;4.55;;;21.20;68.30;;;;;;5015609;28;20117;-52
2023/10/02 01:58:43;;;;;;;14.10;5.45;;;21.10;68.20;;;;;;5013182;28;20111;-52
2023/10/02 02:01:10;;;;;;;9.90;4.80;;;21.20;68.40;;;;;;5024289;28;20592;-59
2023/10/02 02:03:40;;;;;;;10.60;5.13;;;21.10;68.20;;;;;;5017154;28;20030;-54
2023/10/02 02:06:08;;;;;;;21.83;5.55;;;21.10;68.20;;;;;;5067624;28;20053;-54
2023/10/02 02:08:43;;;;;;;10.48;5.22;;;21.20;68.20;;;;;;4997435;28;20034;-55
2023/10/02 02:11:20;;;;;;;10.35;4.72;;;21.20;68.30;;;;;;5050125;28;20031;-58
2023/10/02 02:13:53;;;;;;;11.23;4.97;;;21.10;68.20;;;;;;5030474;28;20026;-56
2023/10/02 02:16:33;;;;;;;11.85;5.47;;;21.10;68.10;;;;;;4989696;28;20036;-56
2023/10/02 02:19:12;;;;;;;10.68;5.22;;;21.10;68.20;;;;;;5043346;28;20036;-54
2023/10/02 02:21:38;;;;;;;12.57;5.22;;;21.10;68.20;;;;;;5055584;28;20483;-58
2023/10/02 02:24:06;;;;;;;11.73;5.15;;;21.10;68.20;;;;;;5040007;28;20039;-56
2023/10/02 02:26:34;;;;;;;11.30;5.20;;;21.10;68.10;;;;;;5059329;28;20086;-57
2023/10/02 02:29:04;;;;;;;10.55;5.30;;;21.10;68.70;;;;;;5020482;28;20020;-55
2023/10/02 02:31:32;;;;;;;17.48;5.30;;;21.10;68.00;;;;;;5014687;28;20041;-56
2023/10/02 02:34:04;;;;;;;11.70;5.15;;;21.10;68.10;;;;;;5033881;28;20033;-55
2023/10/02 02:36:35;;;;;;;11.32;5.47;;;21.10;68.00;;;;;;5047818;28;20157;-54
2023/10/02 02:39:15;;;;;;;9.63;4.78;;;21.10;68.00;;;;;;5084802;22;20052;-52
2023/10/02 02:44:46;;;;;;;11.52;5.53;;;21.10;68.00;;;;;;5070282;28;20099;-56
2023/10/02 02:47:16;;;;;;;11.48;5.70;;;21.10;67.90;;;;;;5062425;28;20031;-57
2023/10/02 02:49:51;;;;;;;11.55;5.72;;;21.10;68.00;;;;;;5077301;28;20036;-57
2023/10/02 02:52:19;;;;;;;11.25;5.57;;;21.10;67.90;;;;;;5070325;28;20040;-54
2023/10/02 02:54:53;;;;;;;11.02;5.45;;;21.10;67.90;;;;;;5070258;28;20120;-55
2023/10/02 02:57:26;;;;;;;11.85;5.20;;;21.10;67.90;;;;;;5069576;28;20081;-54
2023/10/02 03:02:52;;;;;;;10.13;5.00;;;21.10;67.80;;;;;;5065816;28;20037;-56
2023/10/02 03:05:21;;;;;;;13.23;5.55;;;21.10;67.90;;;;;;5069288;28;20024;-56
2023/10/02 03:07:56;;;;;;;10.82;5.30;;;21.10;67.80;;;;;;5074631;28;20479;-56
2023/10/02 03:10:24;;;;;;;10.13;4.88;;;21.10;67.90;;;;;;5070310;28;20029;-57
2023/10/02 03:12:51;;;;;;;13.48;5.50;;;21.10;68.00;;;;;;5070096;28;20060;-55
2023/10/02 03:15:17;;;;;;;10.48;5.65;;;21.10;67.90;;;;;;5069939;28;20165;-57
2023/10/02 03:17:49;;;;;;;11.20;5.00;;;21.10;67.90;;;;;;5070371;28;20372;-57
2023/10/02 03:20:24;;;;;;;11.23;5.35;;;21.10;67.90;;;;;;5069574;28;20032;-57
2023/10/02 03:22:57;;;;;;;10.70;5.38;;;21.10;67.80;;;;;;5065912;28;20111;-56
2023/10/02 03:25:28;;;;;;;12.35;5.38;;;21.10;68.40;;;;;;5068943;28;20094;-54
2023/10/02 03:27:57;;;;;;;12.90;5.72;;;21.10;67.80;;;;;;5069938;28;20028;-55
2023/10/02 03:30:38;;;;;;;12.73;6.30;;;21.10;67.80;;;;;;5071941;28;20499;-57
2023/10/02 03:33:20;;;;;;;11.73;5.50;;;21.10;67.80;;;;;;5073173;28;20422;-57
2023/10/02 03:36:08;;;;;;;12.82;5.70;;;21.10;67.70;;;;;;5073590;28;20029;-57
2023/10/02 03:38:43;;;;;;;13.45;6.07;;;21.10;67.70;;;;;;5067311;28;20031;-56
2023/10/02 03:41:11;;;;;;;13.60;5.65;;;21.10;67.60;;;;;;5072887;28;20024;-54
2023/10/02 03:43:49;;;;;;;14.80;6.28;;;21.10;67.60;;;;;;5073229;28;20028;-53
2023/10/02 03:46:35;;;;;;;13.30;6.20;;;21.10;67.60;;;;;;5073165;28;20021;-52
2023/10/02 03:49:05;;;;;;;15.60;6.28;;;21.10;67.50;;;;;;5073389;28;20031;-56
2023/10/02 03:51:40;;;;;;;12.95;6.03;;;21.10;67.50;;;;;;5063994;28;20078;-53
2023/10/02 03:54:17;;;;;;;12.02;5.57;;;21.10;67.30;;;;;;5072912;28;20026;-57
2023/10/02 03:56:50;;;;;;;12.73;5.57;;;21.10;67.40;;;;;;5073024;28;20020;-56
2023/10/02 03:59:17;;;;;;;12.48;5.93;;;21.10;67.50;;;;;;5072241;28;20016;-57
2023/10/02 04:01:43;;;;;;;14.30;6.10;;;21.10;68.00;;;;;;5072341;28;20016;-57
2023/10/02 04:06:35;;;;;;;13.45;5.85;;;21.10;67.40;;;;;;5072930;28;20416;-54
2023/10/02 04:09:13;;;;;;;13.85;6.00;;;21.10;67.50;;;;;;5072800;28;20545;-54
2023/10/02 04:11:43;;;;;;;13.60;5.82;;;21.10;67.40;;;;;;5067175;28;20091;-56
2023/10/02 04:14:18;;;;;;;13.05;5.93;;;21.10;67.30;;;;;;5072575;28;20115;-57
2023/10/02 04:16:49;;;;;;;14.70;6.43;;;21.10;67.30;;;;;;5073195;28;20067;-57
2023/10/02 04:19:16;;;;;;;13.18;5.72;;;21.10;67.40;;;;;;5072723;28;20511;-57
2023/10/02 04:21:47;;;;;;;14.60;6.18;;;21.10;67.40;;;;;;5072517;28;20062;-54
2023/10/02 04:24:13;;;;;;;13.43;6.15;;;21.10;67.40;;;;;;5071441;28;20028;-51
2023/10/02 04:26:44;;;;;;;12.68;5.65;;;21.10;67.20;;;;;;5072395;28;20036;-50
2023/10/02 04:29:14;;;;;;;13.38;5.75;;;21.10;67.20;;;;;;5072346;28;20454;-51
2023/10/02 04:31:44;;;;;;;15.52;6.32;;;21.10;67.30;;;;;;5090738;27;20028;-51
2023/10/02 04:34:29;;;;;;;13.45;6.25;;;21.10;67.50;;;;;;5070588;28;20499;-55
2023/10/02 04:36:55;;;;;;;17.48;6.28;;;21.10;67.30;;;;;;5072628;28;20021;-51
2023/10/02 04:40:07;;;;;;;22.08;6.70;;;21.10;67.50;;;;;;5072474;28;20028;-53
2023/10/02 04:42:15;;;;;;;14.43;6.97;;;21.10;67.00;;;;;;5069284;28;20041;-57
2023/10/02 04:44:45;;;;;;;14.00;6.25;;;21.10;67.30;;;;;;5072371;28;20116;-57
2023/10/02 04:47:18;;;;;;;15.90;6.25;;;21.10;67.40;;;;;;5072520;28;20048;-55
2023/10/02 04:55:32;;;;;;;14.50;6.20;;;21.10;67.50;;;;;;5071930;28;20089;-56
2023/10/02 04:58:09;;;;;;;14.57;6.53;;;21.10;67.30;;;;;;5071451;28;20031;-57
2023/10/02 05:03:36;;;;;;;16.75;6.32;;;21.00;67.40;;;;;;5070846;28;20059;-56
2023/10/02 05:06:03;;;;;;;17.13;6.80;;;21.10;67.90;;;;;;5071663;28;20025;-54
2023/10/02 05:09:11;;;;;;;14.38;6.53;;;21.00;67.40;;;;;;5077306;28;20028;-57
2023/10/02 05:11:46;;;;;;;19.20;7.07;;;21.00;67.40;;;;;;5070484;28;20028;-57
2023/10/02 05:14:14;;;;;;;15.60;6.47;;;21.00;67.40;;;;;;5070419;28;20024;-56
2023/10/02 05:16:42;;;;;;;12.90;6.97;;;21.00;67.40;;;;;;5071140;28;20450;-55
2023/10/02 05:19:09;;;;;;;14.07;7.03;;;21.10;67.40;;;;;;5070916;28;20020;-57
2023/10/02 05:21:39;;;;;;;18.05;6.93;;;21.00;67.40;;;;;;5071523;28;20487;-57
2023/10/02 05:24:11;;;;;;;16.08;6.82;;;21.00;67.40;;;;;;5071278;28;20960;-56
2023/10/02 05:26:44;;;;;;;13.00;6.85;;;21.00;67.30;;;;;;5065314;28;20100;-56
2023/10/02 05:29:12;;;;;;;13.20;6.68;;;21.00;67.20;;;;;;5071188;28;20040;-55
2023/10/02 05:31:42;;;;;;;15.18;7.30;;;21.00;67.20;;;;;;5070750;28;20506;-57
2023/10/02 05:34:07;;;;;;;;;;;21.00;67.20;;;;;;5071328;28;20506;-57
2023/10/02 05:36:35;;;;;;;13.98;6.93;;;21.00;67.20;;;;;;5071245;28;19909;-57
2023/10/02 05:41:48;;;;;;;15.70;6.97;;;21.00;67.20;;;;;;5070867;28;20021;-55
2023/10/02 05:44:23;;;;;;;13.05;6.50;;;21.00;67.20;;;;;;5070628;28;20047;-57
2023/10/02 05:46:55;;;;;;;15.38;6.97;;;21.00;67.10;;;;;;5071111;28;20039;-53
2023/10/02 05:49:26;;;;;;;15.80;7.55;;;21.00;67.20;;;;;;5071087;28;20530;-57
2023/10/02 05:51:55;;;;;;;14.77;7.30;;;21.00;67.10;;;;;;5070451;28;20131;-55
2023/10/02 05:54:29;;;;;;;14.25;7.50;;;21.00;67.20;;;;;;5070682;28;20025;-57
2023/10/02 05:57:12;;;;;;;16.25;7.35;;;21.00;67.20;;;;;;5070836;28;20350;-56
2023/10/02 05:59:45;;;;;;;28.67;8.50;;;21.00;67.10;;;;;;5064920;28;20048;-55
2023/10/02 06:02:24;;;;;;;18.00;8.18;;;21.00;67.00;;;;;;5069609;28;20039;-57
2023/10/02 06:04:53;;;;;;;15.48;7.53;;;21.00;67.20;;;;;;5070878;28;20024;-57
2023/10/02 06:07:40;;;;;;;14.35;6.97;;;21.00;67.10;;;;;;5070957;28;20029;-57
2023/10/02 06:10:08;;;;;;;15.50;7.13;;;21.00;67.10;;;;;;5070656;28;20020;-57
2023/10/02 06:12:36;;;;;;;14.18;7.32;;;21.00;67.10;;;;;;5064025;28;20020;-57
2023/10/02 06:15:09;;;;;;;17.13;7.60;;;21.00;67.10;;;;;;5074012;28;20059;-57
2023/10/02 06:17:36;;;;;;;18.42;8.82;;;21.00;67.10;;;;;;5075888;28;20450;-54
2023/10/02 06:20:02;;;;;;;16.02;8.32;;;21.00;67.00;;;;;;5075611;28;20545;-56
2023/10/02 06:22:29;;;;;;;15.05;7.82;;;21.00;67.00;;;;;;5074763;28;20029;-56
2023/10/02 06:24:57;;;;;;;16.60;8.23;;;21.00;67.10;;;;;;5070150;28;20024;-56
2023/10/02 06:27:24;;;;;;;17.45;9.00;;;21.00;67.10;;;;;;5074042;28;20058;-56
2023/10/02 06:29:51;;;;;;;20.08;8.30;;;21.00;67.00;;;;;;5071975;28;20166;-56
2023/10/02 06:32:19;;;;;;;23.02;8.15;;;21.00;67.00;;;;;;5070772;28;20033;-49
2023/10/02 06:34:47;;;;;;;23.42;8.98;;;21.00;67.00;;;;;;5071547;28;20282;-51
2023/10/02 06:37:16;;;;;;;17.90;8.20;;;21.10;67.00;;;;;;5103333;28;20041;-55
2023/10/02 06:40:02;;;;;;;15.80;8.32;;;21.10;67.10;;;;;;5071117;28;20085;-55
2023/10/02 06:42:28;;;;;;;19.98;8.77;;;21.10;67.50;;;;;;5070435;28;20036;-56
2023/10/02 06:44:54;;;;;;;19.73;8.43;;;21.10;67.40;;;;;;5070129;28;20388;-48
2023/10/02 06:47:28;;;;;;;21.60;7.55;;;21.20;66.90;;;;;;5070458;28;20133;-50
2023/10/02 06:50:02;;;;;;;22.23;8.02;;;21.20;66.90;;;;;;5070518;28;20036;-51
2023/10/02 06:52:32;;;;;;;25.83;7.93;;;21.20;67.50;;;;;;5062798;28;20385;-53
2023/10/02 06:55:00;;;;;;;21.27;8.25;;;21.20;67.10;;;;;;5068871;28;20035;-50
2023/10/02 06:57:26;;;;;;;24.40;8.93;;;21.10;66.90;;;;;;5070515;28;20028;-51
2023/10/02 06:59:52;;;;;;;23.70;9.48;;;21.20;66.90;;;;;;5069435;28;20116;-54
2023/10/02 07:02:26;;;;;;;21.83;8.77;;;21.20;67.60;;;;;;5070026;28;20024;-56
2023/10/02 07:04:55;;;;;;;27.52;8.82;;;21.10;67.10;;;;;;5072312;28;20020;-52
2023/10/02 07:07:30;;;;;;;28.50;9.98;;;21.20;67.40;;;;;;5074144;28;20100;-53
2023/10/02 07:10:08;;;;;;;28.20;9.98;;;21.20;68.30;;;;;;5074465;28;20031;-52
2023/10/02 07:12:39;;;;;;;25.42;9.48;;;21.20;69.70;;;;;;5074210;28;20427;-54
2023/10/02 07:15:22;;;;;;;27.48;9.18;;;21.20;67.70;;;;;;5073418;28;20044;-49
2023/10/02 07:17:48;;;;;;;36.88;10.20;;;21.20;68.60;;;;;;5073668;28;20021;-53
2023/10/02 07:20:20;;;;;;;26.90;10.00;;;21.30;69.10;;;;;;5074022;28;20483;-54
2023/10/02 07:22:47;;;;;;;26.88;10.35;;;21.20;67.60;;;;;;5073784;28;20032;-49
2023/10/02 07:25:20;;;;;;;31.85;10.07;;;21.20;67.20;;;;;;5072980;28;20024;-54
2023/10/02 07:27:48;;;;;;;22.77;10.15;;;21.20;67.60;;;;;;5064193;28;20467;-47
2023/10/02 07:30:24;;;;;;;26.15;10.27;;;21.20;67.50;;;;;;5053872;28;20033;-54
2023/10/02 07:32:53;;;;;;;21.33;10.15;;;21.10;66.80;;;;;;5117128;27;20111;-54
2023/10/02 07:35:22;;;;;;;23.10;10.45;;;21.10;66.90;;;;;;5094321;28;20028;-54
2023/10/02 07:37:58;;;;;;;22.15;10.05;;;21.10;66.10;;;;;;5094004;28;20036;-56
2023/10/02 07:40:49;;;;;;;23.08;10.48;;;21.10;66.20;;;;;;5094178;28;20036;-55
2023/10/02 07:43:18;;;;;;;21.02;10.10;;;21.10;66.00;;;;;;5094148;28;20436;-56
2023/10/02 07:49:00;;;;;;;21.00;9.40;;;21.10;65.70;;;;;;5051098;28;20179;-53
2023/10/02 07:51:32;;;;;;;22.10;9.68;;;21.10;66.60;;;;;;5051322;28;20080;-56
2023/10/02 07:53:59;;;;;;;21.73;10.05;;;21.10;66.00;;;;;;5051107;28;20112;-49
2023/10/02 07:56:27;;;;;;;21.27;9.82;;;21.10;66.30;;;;;;5051267;28;20037;-55
2023/10/02 07:58:55;;;;;;;23.95;10.50;;;21.10;66.20;;;;;;5034330;28;20091;-56
2023/10/02 08:01:25;;;;;;;20.25;9.85;;;21.10;66.30;;;;;;5051051;28;20082;-54
2023/10/02 08:03:51;;;;;;;20.55;10.68;;;21.10;67.10;;;;;;5050505;28;20040;-50
2023/10/02 08:06:33;;;;;;;23.63;10.02;;;21.20;66.50;;;;;;5050908;28;20025;-52
2023/10/02 08:11:50;;;;;;;21.13;10.00;;;21.20;68.20;;;;;;5050828;28;20045;-49
2023/10/02 08:14:35;;;;;;;21.42;9.55;;;21.20;72.40;;;;;;5050571;28;20055;-56
2023/10/02 08:17:08;;;;;;;20.13;9.85;;;21.20;72.00;;;;;;5050372;28;20059;-51
2023/10/02 08:19:36;;;;;;;18.98;9.23;;;21.20;70.20;;;;;;5050735;28;20033;-51
2023/10/02 08:22:05;;;;;;;20.25;9.50;;;21.30;70.50;;;;;;5050280;28;20451;-56
2023/10/02 08:24:37;;;;;;;19.67;9.93;;;21.30;70.70;;;;;;5074368;28;20394;-55
2023/10/02 08:27:04;;;;;;;21.40;10.40;;;21.30;69.80;;;;;;5093233;28;20039;-56
2023/10/02 08:29:30;;;;;;;19.35;9.15;;;21.30;70.50;;;;;;5126010;27;20047;-56
2023/10/02 08:31:56;;;;;;;21.15;8.98;;;21.30;69.60;;;;;;5092835;28;20093;-53
2023/10/02 08:34:24;;;;;;;19.35;9.73;;;21.30;70.10;;;;;;5092989;28;20030;-57
2023/10/02 08:37:07;;;;;;;19.10;9.13;;;21.30;69.30;;;;;;5109026;28;20081;-53
2023/10/02 08:39:34;;;;;;;19.05;9.57;;;21.20;69.70;;;;;;5005121;22;20042;-60
2023/10/02 08:42:08;;;;;;;18.95;9.23;;;21.20;69.20;;;;;;4970393;28;20064;-60
2023/10/02 08:44:41;;;;;;;18.63;9.27;;;21.20;69.30;;;;;;4970929;28;20027;-60
2023/10/02 08:47:07;;;;;;;17.80;9.18;;;21.20;69.70;;;;;;4970898;28;20537;-60
2023/10/02 08:49:34;;;;;;;18.80;9.30;;;21.20;69.00;;;;;;4970865;28;20023;-60
2023/10/02 08:52:03;;;;;;;17.45;9.15;;;21.20;68.70;;;;;;4970497;28;20070;-60
2023/10/02 08:54:31;;;;;;;19.60;9.13;;;21.30;68.80;;;;;;4970857;28;20035;-60
2023/10/02 08:57:06;;;;;;;19.30;9.38;;;21.30;68.40;;;;;;4970917;28;20031;-60
2023/10/02 08:59:38;;;;;;;21.48;9.60;;;21.30;68.50;;;;;;4971031;28;20038;-60
2023/10/02 09:02:15;;;;;;;21.27;9.48;;;21.40;68.60;;;;;;4970492;28;20422;-60
2023/10/02 09:04:53;;;;;;;24.25;8.95;;;21.40;68.80;;;;;;4971240;28;20034;-60
2023/10/02 09:07:45;;;;;;;17.70;8.95;;;21.50;68.80;;;;;;4970748;28;20034;-60
2023/10/02 09:10:24;;;;;;;20.45;9.30;;;21.40;68.70;;;;;;4969706;28;20157;-60
2023/10/02 09:13:31;;;;;;;;;;;21.40;68.80;;;;;;4970721;28;20056;-60
2023/10/02 09:15:59;;;;;;;17.75;9.20;;;21.50;68.70;;;;;;5049589;28;19909;-60
2023/10/02 09:18:33;;;;;;;19.92;8.98;;;21.50;68.60;;;;;;5049511;28;20086;-60
2023/10/02 09:21:33;;;;;;;23.50;9.25;;;21.50;68.70;;;;;;5049666;28;20048;-60
2023/10/02 09:23:53;;;;;;;22.98;9.10;;;21.50;68.80;;;;;;5048994;28;20041;-60
2023/10/02 09:26:32;;;;;;;18.23;8.65;;;21.50;69.20;;;;;;5049485;28;20067;-60
2023/10/02 09:28:58;;;;;;;21.08;8.52;;;21.50;68.50;;;;;;5049264;28;20029;-60
2023/10/02 09:31:34;;;;;;;20.95;9.05;;;21.50;68.80;;;;;;5049347;28;20036;-60
2023/10/02 09:34:16;;;;;;;20.05;8.27;;;21.50;68.90;;;;;;5049109;28;20312;-60
2023/10/02 09:36:54;;;;;;;19.20;8.73;;;21.50;68.50;;;;;;5049394;28;20033;-60
2023/10/02 09:39:31;;;;;;;21.98;8.95;;;21.50;68.80;;;;;;5048993;28;20059;-59
2023/10/02 09:42:06;;;;;;;24.00;10.48;;;21.50;70.10;;;;;;5048711;28;20449;-60
2023/10/02 09:44:40;;;;;;;22.73;9.52;;;21.60;70.50;;;;;;5049270;28;20077;-58
2023/10/02 09:47:08;;;;;;;23.27;10.13;;;21.60;70.50;;;;;;4995036;28;20047;-60
2023/10/02 09:49:44;;;;;;;20.50;8.88;;;21.60;70.50;;;;;;4969974;28;20022;-60
2023/10/02 09:52:17;;;;;;;21.27;9.55;;;21.70;71.70;;;;;;4970205;28;20027;-60
2023/10/02 09:55:05;;;;;;;26.42;10.27;;;21.70;70.10;;;;;;4969913;28;20031;-60
2023/10/02 09:57:37;;;;;;;25.00;9.38;;;21.70;71.40;;;;;;4969913;28;20045;-60
2023/10/02 10:00:53;;;;;;;20.58;8.88;;;21.70;70.20;;;;;;4969965;28;20081;-60
2023/10/02 10:03:23;;;;;;;28.42;8.85;;;21.60;70.10;;;;;;4966479;28;20051;-61
2023/10/02 10:06:07;;;;;;;38.97;10.00;;;21.70;70.00;;;;;;4969714;28;20550;-61
2023/10/02 10:11:45;;;;;;;20.25;8.15;;;21.80;69.50;;;;;;4969242;28;20030;-61
2023/10/02 10:14:44;;;;;;;23.02;8.85;;;21.70;69.20;;;;;;4965145;28;20031;-62
2023/10/02 10:17:16;;;;;;;18.75;8.30;;;21.80;68.90;;;;;;4965540;28;20046;-61
2023/10/02 10:20:08;;;;;;;20.10;8.95;;;21.80;68.70;;;;;;4986084;28;20038;-61
2023/10/02 10:22:36;;;;;;;19.73;9.55;;;21.80;68.40;;;;;;4988716;28;20484;-61
2023/10/02 10:27:40;;;;;;;21.92;10.90;;;21.80;68.50;;;;;;4971594;28;20055;-61
2023/10/02 10:30:39;;;;;;;19.85;9.55;;;21.80;68.50;;;;;;4967250;28;20403;-62
2023/10/02 10:35:40;;;;;;;19.38;9.57;;;21.70;68.20;;;;;;4970090;28;20083;-61
2023/10/02 10:41:00;;;;;;;23.35;10.07;;;21.70;68.30;;;;;;4972537;28;20034;-61
2023/10/02 10:46:17;;;;;;;21.63;9.15;;;21.70;68.30;;;;;;4976599;28;20452;-62
2023/10/02 10:48:48;;;;;;;18.25;8.93;;;21.70;68.30;;;;;;4977148;28;20034;-61
2023/10/02 10:51:20;;;;;;;16.15;8.30;;;21.70;68.20;;;;;;4974713;28;20033;-61
2023/10/02 10:53:54;;;;;;;24.13;8.55;;;21.70;68.20;;;;;;4975244;28;20038;-62
2023/10/02 10:56:22;;;;;;;17.25;8.68;;;21.70;68.30;;;;;;4971744;28;20023;-62
2023/10/02 10:59:10;;;;;;;19.85;9.43;;;21.70;68.30;;;;;;4974367;28;20084;-62
2023/10/02 11:04:48;;;;;;;18.85;8.68;;;21.70;68.40;;;;;;4971717;28;20031;-61
2023/10/02 11:07:23;;;;;;;19.17;9.32;;;21.70;68.30;;;;;;4971404;28;20501;-62
2023/10/02 11:10:19;;;;;;;18.75;8.82;;;21.70;68.50;;;;;;4973070;28;20027;-62
2023/10/02 11:13:08;;;;;;;19.67;8.88;;;21.70;68.60;;;;;;4972643;28;20470;-63
2023/10/02 11:15:46;;;;;;;18.00;8.02;;;21.70;68.40;;;;;;4973749;28;20034;-62
2023/10/02 11:18:23;;;;;;;19.08;8.38;;;21.70;68.40;;;;;;4971310;28;20031;-63
2023/10/02 11:20:57;;;;;;;16.75;8.30;;;21.80;68.30;;;;;;4968935;28;20065;-63
2023/10/02 11:23:35;;;;;;;20.77;8.07;;;21.80;68.40;;;;;;4972442;28;20026;-63
2023/10/02 11:26:01;;;;;;;17.65;7.65;;;21.80;68.50;;;;;;4971653;28;20027;-62
2023/10/02 11:28:31;;;;;;;22.38;8.35;;;21.80;68.40;;;;;;4976318;28;20023;-63
2023/10/02 11:31:29;;;;;;;15.38;8.15;;;21.80;68.50;;;;;;4974214;28;20106;-63
2023/10/02 11:34:08;;;;;;;19.88;8.43;;;21.80;68.30;;;;;;4971018;28;20043;-62
2023/10/02 11:36:37;;;;;;;15.48;7.45;;;21.80;68.20;;;;;;4974487;28;20603;-63
2023/10/02 11:39:19;;;;;;;15.68;8.30;;;21.80;68.00;;;;;;4973195;28;20874;-63
2023/10/02 11:41:46;;;;;;;19.45;8.00;;;21.80;67.80;;;;;;4972902;28;20041;-62
2023/10/02 11:44:13;;;;;;;16.65;8.00;;;21.80;67.70;;;;;;4974293;28;20038;-63
2023/10/02 11:46:43;;;;;;;16.83;7.90;;;21.80;67.60;;;;;;4974953;28;20045;-62
2023/10/02 11:49:12;;;;;;;17.85;8.25;;;21.80;67.40;;;;;;4972331;28;20029;-62
2023/10/02 11:51:39;;;;;;;17.33;8.15;;;21.80;67.70;;;;;;4978211;28;20106;-63
2023/10/02 11:54:13;;;;;;;16.70;8.05;;;21.80;67.80;;;;;;4976142;28;20027;-62
2023/10/02 11:56:39;;;;;;;16.88;8.98;;;21.80;67.40;;;;;;4972426;28;20026;-62
2023/10/02 11:59:06;;;;;;;17.85;9.38;;;21.80;67.60;;;;;;4970953;28;20459;-62
2023/10/02 12:01:32;;;;;;;19.75;8.63;;;21.80;67.40;;;;;;4976696;28;20486;-62
2023/10/02 12:03:58;;;;;;;20.02;8.52;;;21.80;67.40;;;;;;4971275;28;20398;-62
2023/10/02 12:06:25;;;;;;;18.23;8.48;;;21.80;67.40;;;;;;4971106;28;20034;-63
2023/10/02 12:08:51;;;;;;;17.00;8.82;;;21.80;67.60;;;;;;4972801;28;20034;-62
2023/10/02 12:11:17;;;;;;;15.88;8.55;;;21.80;67.30;;;;;;4971872;28;20061;-63
2023/10/02 12:13:44;;;;;;;16.45;8.73;;;21.80;67.90;;;;;;4972729;28;20084;-63
2023/10/02 12:16:13;;;;;;;17.63;9.05;;;21.80;67.70;;;;;;4969881;28;20102;-64
2023/10/02 12:18:40;;;;;;;23.02;9.05;;;21.80;68.80;;;;;;4992316;28;20057;-63
2023/10/02 12:21:11;;;;;;;27.98;9.13;;;21.80;69.00;;;;;;4981269;28;20038;-63
2023/10/02 12:23:43;;;;;;;18.45;8.20;;;21.80;68.70;;;;;;4988219;28;20026;-63
2023/10/02 12:26:24;;;;;;;22.88;8.77;;;21.80;68.70;;;;;;4981532;28;20037;-64
2023/10/02 12:28:50;;;;;;;18.63;8.23;;;21.80;69.20;;;;;;4988898;28;20029;-63
2023/10/02 12:31:19;;;;;;;19.15;8.93;;;21.80;68.50;;;;;;4975715;28;20105;-63
2023/10/02 12:33:49;;;;;;;21.25;9.25;;;21.80;68.50;;;;;;4988248;28;20497;-63
2023/10/02 12:36:17;;;;;;;;;;;21.80;68.30;;;;;;4982599;28;20043;-63
2023/10/02 12:38:46;;;;;;;20.55;9.73;;;21.80;68.80;;;;;;4988114;28;19913;-63
2023/10/02 12:41:17;;;;;;;18.35;8.52;;;21.70;68.80;;;;;;4981353;28;20026;-63
2023/10/02 12:43:44;;;;;;;17.80;9.15;;;21.70;68.80;;;;;;4986645;28;20053;-63
2023/10/02 12:46:14;;;;;;;22.73;8.63;;;21.70;68.90;;;;;;4981742;28;20022;-63
2023/10/02 12:48:48;;;;;;;18.52;8.35;;;21.70;68.90;;;;;;4987558;28;20026;-63
2023/10/02 12:51:15;;;;;;;17.08;8.43;;;21.70;69.20;;;;;;4981822;28;20031;-63
2023/10/02 12:53:42;;;;;;;17.05;8.27;;;21.60;69.30;;;;;;4987046;28;20401;-63
2023/10/02 12:56:15;;;;;;;20.33;8.82;;;21.60;69.20;;;;;;4979147;28;20076;-63
2023/10/02 12:58:41;;;;;;;16.08;8.10;;;21.60;69.20;;;;;;4988030;28;20111;-63
2023/10/02 13:01:07;;;;;;;20.25;8.30;;;21.60;69.40;;;;;;4982698;28;20058;-63
2023/10/02 13:03:33;;;;;;;15.90;8.90;;;21.60;69.20;;;;;;4986921;28;20109;-63
2023/10/02 13:06:01;;;;;;;17.83;8.43;;;21.60;69.20;;;;;;4983873;28;20153;-63
2023/10/02 13:08:27;;;;;;;15.77;9.00;;;21.60;69.60;;;;;;4979106;28;20042;-63
2023/10/02 13:10:54;;;;;;;16.27;9.18;;;21.60;69.00;;;;;;4984680;28;20540;-63
2023/10/02 13:13:20;;;;;;;18.92;7.95;;;21.60;69.10;;;;;;4986326;28;20067;-63
2023/10/02 13:15:48;;;;;;;17.38;8.40;;;21.60;69.30;;;;;;4986270;28;20037;-63
2023/10/02 13:18:15;;;;;;;17.08;8.70;;;21.60;69.20;;;;;;4984848;28;20046;-63
2023/10/02 13:20:43;;;;;;;18.08;9.23;;;21.60;69.20;;;;;;4987081;28;20023;-63
2023/10/02 13:23:09;;;;;;;16.98;8.40;;;21.60;69.20;;;;;;4984532;28;20053;-63
2023/10/02 13:25:35;;;;;;;17.83;9.23;;;21.60;69.20;;;;;;4987876;28;20591;-63
2023/10/02 13:28:02;;;;;;;19.30;8.82;;;21.60;69.30;;;;;;4983984;28;20081;-63
2023/10/02 13:30:30;;;;;;;16.33;8.48;;;21.60;69.20;;;;;;4987348;28;20064;-63
2023/10/02 13:32:57;;;;;;;15.52;8.35;;;21.60;69.20;;;;;;4983517;28;20412;-63
2023/10/02 13:35:23;;;;;;;17.52;8.40;;;21.60;69.20;;;;;;4987270;28;20045;-63
2023/10/02 13:37:52;;;;;;;15.93;8.50;;;21.60;69.20;;;;;;4984712;28;20030;-63
2023/10/02 13:40:18;;;;;;;17.60;8.90;;;21.60;69.30;;;;;;4987964;28;20520;-63
2023/10/02 13:42:46;;;;;;;17.45;9.02;;;21.50;69.20;;;;;;4984304;28;20113;-63
2023/10/02 13:45:12;;;;;;;15.95;8.60;;;21.60;69.20;;;;;;4987643;28;20032;-63
2023/10/02 13:47:38;;;;;;;18.95;9.23;;;21.60;69.20;;;;;;4984809;28;20401;-63